sensor_id;sensor_type;location;lat;lon;timestamp;P1;durP1;ratioP1;P2;durP2;ratioP2
25609;SDS011;13479;49.044;8.716;2022-07-06T04:18:08;6.93;;;2.60;;
25609;SDS011;13479;49.044;8.716;2022-07-06T04:20:34;4.00;;;2.40;;
25609;SDS011;13479;49.044;8.716;2022-07-06T04:22:59;4.97;;;2.80;;
25609;SDS011;13479;49.044;8.716;2022-07-06T04:25:25;5.63;;;2.67;;
25609;SDS011;13479;49.044;8.716;2022-07-06T04:27:50;6.50;;;2.90;;
25609;SDS011;13479;49.044;8.716;2022-07-06T04:30:16;6.13;;;2.63;;
25609;SDS011;13479;49.044;8.716;2022-07-06T04:32:41;4.43;;;2.38;;
25609;SDS011;13479;49.044;8.716;2022-07-06T04:35:07;5.20;;;2.72;;
25609;SDS011;13479;49.044;8.716;2022-07-06T04:37:32;8.35;;;2.50;;
25609;SDS011;13479;49.044;8.716;2022-07-06T04:39:58;7.35;;;2.90;;
25609;SDS011;13479;49.044;8.716;2022-07-06T04:42:24;8.75;;;2.60;;
25609;SDS011;13479;49.044;8.716;2022-07-06T04:44:49;5.32;;;2.35;;
25609;SDS011;13479;49.044;8.716;2022-07-06T04:47:16;7.78;;;2.78;;
25609;SDS011;13479;49.044;8.716;2022-07-06T04:49:41;5.07;;;2.40;;
25609;SDS011;13479;49.044;8.716;2022-07-06T04:52:07;4.53;;;2.30;;
25609;SDS011;13479;49.044;8.716;2022-07-06T04:54:32;9.98;;;2.67;;
25609;SDS011;13479;49.044;8.716;2022-07-06T04:56:58;3.38;;;1.92;;
25609;SDS011;13479;49.044;8.716;2022-07-06T04:59:23;3.75;;;2.05;;
25609;SDS011;13479;49.044;8.716;2022-07-06T05:01:48;5.05;;;2.33;;
25609;SDS011;13479;49.044;8.716;2022-07-06T05:04:14;3.92;;;1.63;;
25609;SDS011;13479;49.044;8.716;2022-07-06T05:06:39;5.45;;;2.00;;
25609;SDS011;13479;49.044;8.716;2022-07-06T05:09:05;4.15;;;1.73;;
25609;SDS011;13479;49.044;8.716;2022-07-06T05:11:31;3.97;;;1.60;;
25609;SDS011;13479;49.044;8.716;2022-07-06T05:13:56;7.70;;;1.88;;
25609;SDS011;13479;49.044;8.716;2022-07-06T05:16:22;5.60;;;1.92;;
25609;SDS011;13479;49.044;8.716;2022-07-06T05:18:47;6.00;;;1.70;;
25609;SDS011;13479;49.044;8.716;2022-07-06T05:21:13;5.55;;;1.80;;
25609;SDS011;13479;49.044;8.716;2022-07-06T05:23:38;4.18;;;1.63;;
25609;SDS011;13479;49.044;8.716;2022-07-06T05:26:04;4.43;;;1.60;;
25609;SDS011;13479;49.044;8.716;2022-07-06T05:28:29;5.20;;;1.70;;
25609;SDS011;13479;49.044;8.716;2022-07-06T05:30:54;6.47;;;1.80;;
25609;SDS011;13479;49.044;8.716;2022-07-06T05:33:20;5.50;;;1.60;;
25609;SDS011;13479;49.044;8.716;2022-07-06T05:35:45;5.15;;;1.73;;
25609;SDS011;13479;49.044;8.716;2022-07-06T05:38:10;3.83;;;1.30;;
25609;SDS011;13479;49.044;8.716;2022-07-06T05:40:36;4.53;;;1.40;;
25609;SDS011;13479;49.044;8.716;2022-07-06T05:43:01;3.08;;;1.30;;
25609;SDS011;13479;49.044;8.716;2022-07-06T05:45:27;3.38;;;1.48;;
25609;SDS011;13479;49.044;8.716;2022-07-06T05:47:53;5.35;;;1.50;;
25609;SDS011;13479;49.044;8.716;2022-07-06T05:50:36;14.82;;;2.00;;
25609;SDS011;13479;49.044;8.716;2022-07-06T05:53:03;4.22;;;1.30;;
25609;SDS011;13479;49.044;8.716;2022-07-06T05:55:29;4.13;;;1.42;;
25609;SDS011;13479;49.044;8.716;2022-07-06T05:57:54;5.07;;;1.48;;
25609;SDS011;13479;49.044;8.716;2022-07-06T06:00:21;12.68;;;1.60;;
25609;SDS011;13479;49.044;8.716;2022-07-06T06:02:47;2.63;;;1.20;;
25609;SDS011;13479;49.044;8.716;2022-07-06T06:05:13;4.20;;;1.10;;
25609;SDS011;13479;49.044;8.716;2022-07-06T06:07:40;4.00;;;1.00;;
25609;SDS011;13479;49.044;8.716;2022-07-06T06:10:07;5.85;;;1.30;;
25609;SDS011;13479;49.044;8.716;2022-07-06T06:12:34;2.75;;;1.15;;
25609;SDS011;13479;49.044;8.716;2022-07-06T06:15:00;4.15;;;1.15;;
25609;SDS011;13479;49.044;8.716;2022-07-06T06:17:26;5.05;;;1.33;;
25609;SDS011;13479;49.044;8.716;2022-07-06T06:19:51;2.47;;;1.20;;
25609;SDS011;13479;49.044;8.716;2022-07-06T06:22:17;3.95;;;1.15;;
25609;SDS011;13479;49.044;8.716;2022-07-06T06:24:42;3.60;;;1.40;;
25609;SDS011;13479;49.044;8.716;2022-07-06T06:27:07;5.78;;;1.30;;
25609;SDS011;13479;49.044;8.716;2022-07-06T06:29:33;5.28;;;1.20;;
25609;SDS011;13479;49.044;8.716;2022-07-06T06:31:58;3.45;;;1.10;;
25609;SDS011;13479;49.044;8.716;2022-07-06T06:34:23;3.95;;;1.10;;
25609;SDS011;13479;49.044;8.716;2022-07-06T06:36:48;2.58;;;1.30;;
25609;SDS011;13479;49.044;8.716;2022-07-06T06:39:14;2.55;;;1.00;;
25609;SDS011;13479;49.044;8.716;2022-07-06T06:41:39;4.07;;;1.20;;
25609;SDS011;13479;49.044;8.716;2022-07-06T06:44:05;4.47;;;1.10;;
25609;SDS011;13479;49.044;8.716;2022-07-06T06:46:30;3.72;;;1.10;;
25609;SDS011;13479;49.044;8.716;2022-07-06T06:48:55;4.13;;;1.33;;
25609;SDS011;13479;49.044;8.716;2022-07-06T06:51:20;10.30;;;1.45;;
25609;SDS011;13479;49.044;8.716;2022-07-06T06:53:46;6.60;;;1.20;;
25609;SDS011;13479;49.044;8.716;2022-07-06T06:56:12;4.13;;;1.20;;
25609;SDS011;13479;49.044;8.716;2022-07-06T06:58:37;4.72;;;1.10;;
25609;SDS011;13479;49.044;8.716;2022-07-06T07:01:03;3.72;;;1.35;;
25609;SDS011;13479;49.044;8.716;2022-07-06T07:03:29;9.13;;;1.80;;
25609;SDS011;13479;49.044;8.716;2022-07-06T07:05:54;3.13;;;1.20;;
25609;SDS011;13479;49.044;8.716;2022-07-06T07:08:19;5.82;;;1.40;;
25609;SDS011;13479;49.044;8.716;2022-07-06T07:10:45;3.97;;;1.10;;
25609;SDS011;13479;49.044;8.716;2022-07-06T07:13:10;3.67;;;1.15;;
25609;SDS011;13479;49.044;8.716;2022-07-06T07:15:35;7.78;;;1.30;;
25609;SDS011;13479;49.044;8.716;2022-07-06T07:18:00;2.63;;;0.95;;
25609;SDS011;13479;49.044;8.716;2022-07-06T07:20:26;7.10;;;1.35;;
25609;SDS011;13479;49.044;8.716;2022-07-06T07:22:51;33.67;;;4.53;;
25609;SDS011;13479;49.044;8.716;2022-07-06T07:25:16;6.40;;;1.55;;
25609;SDS011;13479;49.044;8.716;2022-07-06T07:27:42;5.70;;;1.55;;
25609;SDS011;13479;49.044;8.716;2022-07-06T07:30:07;6.57;;;1.33;;
25609;SDS011;13479;49.044;8.716;2022-07-06T07:32:33;3.58;;;1.27;;
25609;SDS011;13479;49.044;8.716;2022-07-06T07:34:58;2.95;;;1.10;;
25609;SDS011;13479;49.044;8.716;2022-07-06T07:37:23;4.03;;;1.33;;
25609;SDS011;13479;49.044;8.716;2022-07-06T07:39:48;5.53;;;1.77;;
25609;SDS011;13479;49.044;8.716;2022-07-06T07:42:14;6.15;;;1.63;;
25609;SDS011;13479;49.044;8.716;2022-07-06T07:44:39;4.10;;;1.80;;
25609;SDS011;13479;49.044;8.716;2022-07-06T07:47:05;5.82;;;2.30;;
25609;SDS011;13479;49.044;8.716;2022-07-06T07:49:31;7.82;;;2.85;;
25609;SDS011;13479;49.044;8.716;2022-07-06T07:51:56;8.10;;;2.83;;
25609;SDS011;13479;49.044;8.716;2022-07-06T07:54:21;8.20;;;2.35;;
25609;SDS011;13479;49.044;8.716;2022-07-06T07:56:47;5.43;;;1.83;;
25609;SDS011;13479;49.044;8.716;2022-07-06T07:59:12;5.45;;;1.90;;
25609;SDS011;13479;49.044;8.716;2022-07-06T08:01:37;5.97;;;1.92;;
25609;SDS011;13479;49.044;8.716;2022-07-06T08:04:03;8.82;;;1.83;;
25609;SDS011;13479;49.044;8.716;2022-07-06T08:06:28;5.95;;;1.60;;
25609;SDS011;13479;49.044;8.716;2022-07-06T08:08:54;6.50;;;1.63;;
25609;SDS011;13479;49.044;8.716;2022-07-06T08:11:19;3.05;;;1.40;;
25609;SDS011;13479;49.044;8.716;2022-07-06T08:13:44;4.28;;;1.38;;
25609;SDS011;13479;49.044;8.716;2022-07-06T08:16:10;5.47;;;1.70;;
25609;SDS011;13479;49.044;8.716;2022-07-06T08:18:35;3.63;;;1.40;;
25609;SDS011;13479;49.044;8.716;2022-07-06T08:21:01;3.08;;;1.58;;
25609;SDS011;13479;49.044;8.716;2022-07-06T08:23:27;3.58;;;1.50;;
25609;SDS011;13479;49.044;8.716;2022-07-06T08:25:52;5.13;;;1.80;;
25609;SDS011;13479;49.044;8.716;2022-07-06T08:28:17;3.70;;;1.42;;
25609;SDS011;13479;49.044;8.716;2022-07-06T08:30:43;4.28;;;1.40;;
25609;SDS011;13479;49.044;8.716;2022-07-06T08:33:08;4.38;;;1.60;;
25609;SDS011;13479;49.044;8.716;2022-07-06T08:35:33;4.40;;;1.58;;
25609;SDS011;13479;49.044;8.716;2022-07-06T08:37:59;3.90;;;1.75;;
25609;SDS011;13479;49.044;8.716;2022-07-06T08:40:24;5.63;;;1.55;;
25609;SDS011;13479;49.044;8.716;2022-07-06T08:42:53;4.60;;;1.70;;
25609;SDS011;13479;49.044;8.716;2022-07-06T08:45:19;6.38;;;1.60;;
25609;SDS011;13479;49.044;8.716;2022-07-06T08:47:45;8.07;;;2.03;;
25609;SDS011;13479;49.044;8.716;2022-07-06T08:50:14;8.05;;;2.15;;
25609;SDS011;13479;49.044;8.716;2022-07-06T08:52:41;4.40;;;1.80;;
25609;SDS011;13479;49.044;8.716;2022-07-06T08:55:07;4.07;;;1.60;;
25609;SDS011;13479;49.044;8.716;2022-07-06T08:57:33;5.35;;;1.75;;
25609;SDS011;13479;49.044;8.716;2022-07-06T08:59:59;5.68;;;1.60;;
25609;SDS011;13479;49.044;8.716;2022-07-06T09:02:24;4.53;;;1.80;;
25609;SDS011;13479;49.044;8.716;2022-07-06T09:04:54;4.30;;;1.58;;
25609;SDS011;13479;49.044;8.716;2022-07-06T09:07:21;6.32;;;1.80;;
25609;SDS011;13479;49.044;8.716;2022-07-06T09:09:47;6.15;;;1.83;;
25609;SDS011;13479;49.044;8.716;2022-07-06T09:12:14;4.93;;;1.35;;
25609;SDS011;13479;49.044;8.716;2022-07-06T09:14:39;5.78;;;1.88;;
25609;SDS011;13479;49.044;8.716;2022-07-06T09:17:05;4.35;;;2.00;;
25609;SDS011;13479;49.044;8.716;2022-07-06T09:19:32;7.05;;;2.00;;
25609;SDS011;13479;49.044;8.716;2022-07-06T09:21:59;5.90;;;2.03;;
25609;SDS011;13479;49.044;8.716;2022-07-06T09:24:25;7.45;;;2.28;;
25609;SDS011;13479;49.044;8.716;2022-07-06T09:26:51;6.30;;;2.60;;
25609;SDS011;13479;49.044;8.716;2022-07-06T09:29:24;5.85;;;2.17;;
25609;SDS011;13479;49.044;8.716;2022-07-06T09:32:02;8.43;;;2.58;;
25609;SDS011;13479;49.044;8.716;2022-07-06T09:34:39;8.25;;;3.17;;
25609;SDS011;13479;49.044;8.716;2022-07-06T09:37:09;6.07;;;2.28;;
25609;SDS011;13479;49.044;8.716;2022-07-06T09:39:35;6.40;;;2.33;;
25609;SDS011;13479;49.044;8.716;2022-07-06T09:42:01;5.10;;;2.03;;
25609;SDS011;13479;49.044;8.716;2022-07-06T09:44:41;4.32;;;2.00;;
25609;SDS011;13479;49.044;8.716;2022-07-06T09:47:07;5.95;;;2.20;;
25609;SDS011;13479;49.044;8.716;2022-07-06T09:49:34;5.18;;;2.20;;
25609;SDS011;13479;49.044;8.716;2022-07-06T09:52:01;5.80;;;1.67;;
25609;SDS011;13479;49.044;8.716;2022-07-06T09:54:30;7.53;;;2.25;;
25609;SDS011;13479;49.044;8.716;2022-07-06T09:56:55;3.83;;;1.60;;
25609;SDS011;13479;49.044;8.716;2022-07-06T09:59:22;4.22;;;1.50;;
25609;SDS011;13479;49.044;8.716;2022-07-06T10:01:52;5.15;;;1.65;;
25609;SDS011;13479;49.044;8.716;2022-07-06T10:04:19;4.45;;;2.35;;
25609;SDS011;13479;49.044;8.716;2022-07-06T10:06:45;6.50;;;1.80;;
25609;SDS011;13479;49.044;8.716;2022-07-06T10:09:13;6.78;;;2.28;;
25609;SDS011;13479;49.044;8.716;2022-07-06T10:11:47;3.63;;;1.42;;
25609;SDS011;13479;49.044;8.716;2022-07-06T10:14:17;4.95;;;2.05;;
25609;SDS011;13479;49.044;8.716;2022-07-06T10:16:45;5.00;;;1.88;;
25609;SDS011;13479;49.044;8.716;2022-07-06T10:19:11;3.95;;;2.00;;
25609;SDS011;13479;49.044;8.716;2022-07-06T10:21:37;5.95;;;2.15;;
25609;SDS011;13479;49.044;8.716;2022-07-06T10:24:04;3.05;;;1.60;;
25609;SDS011;13479;49.044;8.716;2022-07-06T10:26:30;4.75;;;1.85;;
25609;SDS011;13479;49.044;8.716;2022-07-06T10:29:01;5.13;;;1.88;;
25609;SDS011;13479;49.044;8.716;2022-07-06T10:31:27;5.80;;;2.10;;
25609;SDS011;13479;49.044;8.716;2022-07-06T10:33:54;4.85;;;1.88;;
25609;SDS011;13479;49.044;8.716;2022-07-06T10:36:21;3.92;;;1.75;;
25609;SDS011;13479;49.044;8.716;2022-07-06T10:38:50;8.65;;;1.98;;
25609;SDS011;13479;49.044;8.716;2022-07-06T10:41:17;4.80;;;1.63;;
25609;SDS011;13479;49.044;8.716;2022-07-06T10:43:45;5.40;;;1.92;;
25609;SDS011;13479;49.044;8.716;2022-07-06T10:46:11;4.40;;;1.58;;
25609;SDS011;13479;49.044;8.716;2022-07-06T10:48:39;3.50;;;1.55;;
25609;SDS011;13479;49.044;8.716;2022-07-06T10:53:33;4.55;;;1.50;;
25609;SDS011;13479;49.044;8.716;2022-07-06T10:56:02;8.23;;;1.60;;
25609;SDS011;13479;49.044;8.716;2022-07-06T10:58:48;4.78;;;1.70;;
25609;SDS011;13479;49.044;8.716;2022-07-06T11:01:16;4.90;;;1.50;;
25609;SDS011;13479;49.044;8.716;2022-07-06T11:03:43;4.70;;;1.40;;
25609;SDS011;13479;49.044;8.716;2022-07-06T11:16:25;5.05;;;1.73;;
25609;SDS011;13479;49.044;8.716;2022-07-06T11:19:34;5.10;;;1.75;;
25609;SDS011;13479;49.044;8.716;2022-07-06T11:21:45;5.75;;;1.48;;
25609;SDS011;13479;49.044;8.716;2022-07-06T11:24:13;4.03;;;1.45;;
25609;SDS011;13479;49.044;8.716;2022-07-06T11:26:41;2.88;;;1.40;;
25609;SDS011;13479;49.044;8.716;2022-07-06T11:29:09;4.72;;;1.52;;
25609;SDS011;13479;49.044;8.716;2022-07-06T11:31:36;2.55;;;1.30;;
25609;SDS011;13479;49.044;8.716;2022-07-06T11:34:04;4.28;;;1.80;;
25609;SDS011;13479;49.044;8.716;2022-07-06T11:36:30;7.82;;;1.90;;
25609;SDS011;13479;49.044;8.716;2022-07-06T11:38:56;4.70;;;1.30;;
25609;SDS011;13479;49.044;8.716;2022-07-06T11:41:21;4.47;;;1.40;;
25609;SDS011;13479;49.044;8.716;2022-07-06T11:43:47;4.50;;;1.55;;
25609;SDS011;13479;49.044;8.716;2022-07-06T11:46:22;4.78;;;1.50;;
25609;SDS011;13479;49.044;8.716;2022-07-06T11:48:49;6.25;;;1.50;;
25609;SDS011;13479;49.044;8.716;2022-07-06T11:51:16;4.85;;;1.40;;
25609;SDS011;13479;49.044;8.716;2022-07-06T11:53:42;3.55;;;1.20;;
25609;SDS011;13479;49.044;8.716;2022-07-06T11:56:09;3.13;;;1.20;;
25609;SDS011;13479;49.044;8.716;2022-07-06T11:58:35;4.28;;;1.30;;
25609;SDS011;13479;49.044;8.716;2022-07-06T12:01:04;4.47;;;1.40;;
25609;SDS011;13479;49.044;8.716;2022-07-06T12:03:36;5.43;;;1.38;;
25609;SDS011;13479;49.044;8.716;2022-07-06T12:06:02;2.92;;;1.25;;
25609;SDS011;13479;49.044;8.716;2022-07-06T12:08:29;4.35;;;1.42;;
25609;SDS011;13479;49.044;8.716;2022-07-06T12:10:55;4.95;;;1.50;;
25609;SDS011;13479;49.044;8.716;2022-07-06T12:13:21;3.45;;;1.20;;
25609;SDS011;13479;49.044;8.716;2022-07-06T12:15:47;2.90;;;1.20;;
25609;SDS011;13479;49.044;8.716;2022-07-06T12:18:12;4.35;;;1.48;;
25609;SDS011;13479;49.044;8.716;2022-07-06T12:20:38;4.22;;;1.45;;
25609;SDS011;13479;49.044;8.716;2022-07-06T12:23:04;3.42;;;1.17;;
25609;SDS011;13479;49.044;8.716;2022-07-06T12:25:31;4.75;;;1.48;;
25609;SDS011;13479;49.044;8.716;2022-07-06T12:27:57;3.15;;;1.20;;
25609;SDS011;13479;49.044;8.716;2022-07-06T12:30:22;4.03;;;1.40;;
25609;SDS011;13479;49.044;8.716;2022-07-06T12:33:10;2.65;;;1.10;;
25609;SDS011;13479;49.044;8.716;2022-07-06T12:35:40;4.28;;;1.15;;
25609;SDS011;13479;49.044;8.716;2022-07-06T12:38:06;4.55;;;1.20;;
25609;SDS011;13479;49.044;8.716;2022-07-06T12:40:31;6.38;;;1.40;;
25609;SDS011;13479;49.044;8.716;2022-07-06T12:42:57;4.57;;;1.20;;
25609;SDS011;13479;49.044;8.716;2022-07-06T12:45:26;3.95;;;1.30;;
25609;SDS011;13479;49.044;8.716;2022-07-06T12:47:59;5.22;;;1.17;;
25609;SDS011;13479;49.044;8.716;2022-07-06T12:50:38;5.22;;;1.30;;
25609;SDS011;13479;49.044;8.716;2022-07-06T12:53:04;3.85;;;1.38;;
25609;SDS011;13479;49.044;8.716;2022-07-06T12:55:31;2.35;;;1.05;;
25609;SDS011;13479;49.044;8.716;2022-07-06T12:57:57;5.25;;;1.52;;
25609;SDS011;13479;49.044;8.716;2022-07-06T13:00:23;3.15;;;1.00;;
25609;SDS011;13479;49.044;8.716;2022-07-06T13:02:50;3.17;;;1.30;;
25609;SDS011;13479;49.044;8.716;2022-07-06T13:05:30;3.95;;;1.35;;
25609;SDS011;13479;49.044;8.716;2022-07-06T13:07:57;4.30;;;1.25;;
25609;SDS011;13479;49.044;8.716;2022-07-06T13:10:23;3.17;;;1.38;;
25609;SDS011;13479;49.044;8.716;2022-07-06T13:12:49;3.00;;;1.20;;
25609;SDS011;13479;49.044;8.716;2022-07-06T13:15:15;3.92;;;1.30;;
25609;SDS011;13479;49.044;8.716;2022-07-06T13:17:40;3.33;;;1.15;;
25609;SDS011;13479;49.044;8.716;2022-07-06T13:20:07;3.42;;;1.30;;
25609;SDS011;13479;49.044;8.716;2022-07-06T13:22:34;1.75;;;1.15;;
25609;SDS011;13479;49.044;8.716;2022-07-06T13:25:00;2.88;;;1.00;;
25609;SDS011;13479;49.044;8.716;2022-07-06T13:27:26;2.83;;;1.00;;
25609;SDS011;13479;49.044;8.716;2022-07-06T13:29:51;1.90;;;0.93;;
25609;SDS011;13479;49.044;8.716;2022-07-06T13:32:17;4.50;;;1.20;;
25609;SDS011;13479;49.044;8.716;2022-07-06T13:34:42;4.30;;;1.00;;
25609;SDS011;13479;49.044;8.716;2022-07-06T13:37:07;2.30;;;1.00;;
25609;SDS011;13479;49.044;8.716;2022-07-06T13:39:33;5.05;;;1.20;;
25609;SDS011;13479;49.044;8.716;2022-07-06T13:41:59;2.90;;;1.17;;
25609;SDS011;13479;49.044;8.716;2022-07-06T13:44:24;3.20;;;1.55;;
25609;SDS011;13479;49.044;8.716;2022-07-06T13:46:49;4.47;;;1.20;;
25609;SDS011;13479;49.044;8.716;2022-07-06T13:49:15;1.88;;;1.00;;
25609;SDS011;13479;49.044;8.716;2022-07-06T13:51:40;3.28;;;1.20;;
25609;SDS011;13479;49.044;8.716;2022-07-06T13:54:06;3.97;;;1.20;;
25609;SDS011;13479;49.044;8.716;2022-07-06T13:56:32;3.70;;;1.20;;
25609;SDS011;13479;49.044;8.716;2022-07-06T13:58:57;4.78;;;1.08;;
25609;SDS011;13479;49.044;8.716;2022-07-06T14:01:22;2.05;;;1.20;;
25609;SDS011;13479;49.044;8.716;2022-07-06T14:03:48;1.45;;;0.90;;
25609;SDS011;13479;49.044;8.716;2022-07-06T14:06:13;4.18;;;1.20;;
25609;SDS011;13479;49.044;8.716;2022-07-06T14:08:40;4.07;;;1.30;;
25609;SDS011;13479;49.044;8.716;2022-07-06T14:11:06;2.17;;;1.08;;
25609;SDS011;13479;49.044;8.716;2022-07-06T14:13:32;3.50;;;1.23;;
25609;SDS011;13479;49.044;8.716;2022-07-06T14:15:59;3.53;;;0.90;;
25609;SDS011;13479;49.044;8.716;2022-07-06T14:18:25;5.88;;;1.10;;
25609;SDS011;13479;49.044;8.716;2022-07-06T14:20:51;3.25;;;1.10;;
25609;SDS011;13479;49.044;8.716;2022-07-06T14:23:17;2.45;;;1.20;;
25609;SDS011;13479;49.044;8.716;2022-07-06T14:25:43;1.95;;;0.93;;
25609;SDS011;13479;49.044;8.716;2022-07-06T14:28:09;3.83;;;1.10;;
25609;SDS011;13479;49.044;8.716;2022-07-06T14:30:35;1.88;;;0.93;;
25609;SDS011;13479;49.044;8.716;2022-07-06T14:33:05;3.33;;;1.13;;
25609;SDS011;13479;49.044;8.716;2022-07-06T14:35:34;3.58;;;0.88;;
25609;SDS011;13479;49.044;8.716;2022-07-06T14:38:01;2.50;;;1.10;;
25609;SDS011;13479;49.044;8.716;2022-07-06T14:40:27;4.65;;;0.93;;
25609;SDS011;13479;49.044;8.716;2022-07-06T14:42:53;2.10;;;0.85;;
25609;SDS011;13479;49.044;8.716;2022-07-06T14:45:18;2.35;;;1.02;;
25609;SDS011;13479;49.044;8.716;2022-07-06T14:47:43;2.95;;;1.00;;
25609;SDS011;13479;49.044;8.716;2022-07-06T14:50:09;2.10;;;1.00;;
25609;SDS011;13479;49.044;8.716;2022-07-06T14:52:34;3.50;;;0.93;;
25609;SDS011;13479;49.044;8.716;2022-07-06T14:54:59;2.08;;;0.90;;
25609;SDS011;13479;49.044;8.716;2022-07-06T14:57:25;1.30;;;0.80;;
25609;SDS011;13479;49.044;8.716;2022-07-06T14:59:50;4.55;;;0.95;;
25609;SDS011;13479;49.044;8.716;2022-07-06T15:02:16;2.45;;;0.95;;
25609;SDS011;13479;49.044;8.716;2022-07-06T15:04:41;2.88;;;0.98;;
25609;SDS011;13479;49.044;8.716;2022-07-06T15:07:06;4.22;;;0.88;;
25609;SDS011;13479;49.044;8.716;2022-07-06T15:09:32;4.75;;;0.90;;
25609;SDS011;13479;49.044;8.716;2022-07-06T15:11:58;6.28;;;1.05;;
25609;SDS011;13479;49.044;8.716;2022-07-06T15:14:23;6.55;;;1.10;;
25609;SDS011;13479;49.044;8.716;2022-07-06T15:16:49;3.03;;;1.10;;
25609;SDS011;13479;49.044;8.716;2022-07-06T15:19:14;2.45;;;0.98;;
25609;SDS011;13479;49.044;8.716;2022-07-06T15:21:40;4.70;;;1.30;;
25609;SDS011;13479;49.044;8.716;2022-07-06T15:24:05;4.00;;;0.90;;
25609;SDS011;13479;49.044;8.716;2022-07-06T15:26:31;4.78;;;1.08;;
25609;SDS011;13479;49.044;8.716;2022-07-06T15:28:57;4.18;;;0.82;;
25609;SDS011;13479;49.044;8.716;2022-07-06T15:31:22;3.28;;;1.00;;
25609;SDS011;13479;49.044;8.716;2022-07-06T15:33:47;2.67;;;0.88;;
25609;SDS011;13479;49.044;8.716;2022-07-06T15:36:13;3.92;;;1.05;;
25609;SDS011;13479;49.044;8.716;2022-07-06T15:38:38;2.65;;;1.05;;
25609;SDS011;13479;49.044;8.716;2022-07-06T15:41:03;10.43;;;1.48;;
25609;SDS011;13479;49.044;8.716;2022-07-06T15:43:29;7.18;;;1.27;;
25609;SDS011;13479;49.044;8.716;2022-07-06T15:45:55;3.55;;;0.98;;
25609;SDS011;13479;49.044;8.716;2022-07-06T15:48:23;5.82;;;1.35;;
25609;SDS011;13479;49.044;8.716;2022-07-06T15:50:48;2.00;;;1.20;;
25609;SDS011;13479;49.044;8.716;2022-07-06T15:53:14;5.70;;;1.50;;
25609;SDS011;13479;49.044;8.716;2022-07-06T15:55:39;2.17;;;1.13;;
25609;SDS011;13479;49.044;8.716;2022-07-06T15:58:04;2.85;;;1.10;;
25609;SDS011;13479;49.044;8.716;2022-07-06T16:00:30;2.63;;;1.25;;
25609;SDS011;13479;49.044;8.716;2022-07-06T16:02:56;3.72;;;1.30;;
25609;SDS011;13479;49.044;8.716;2022-07-06T16:05:21;5.63;;;1.33;;
25609;SDS011;13479;49.044;8.716;2022-07-06T16:07:47;4.85;;;1.50;;
25609;SDS011;13479;49.044;8.716;2022-07-06T16:10:12;5.00;;;1.80;;
25609;SDS011;13479;49.044;8.716;2022-07-06T16:12:38;4.63;;;1.80;;
25609;SDS011;13479;49.044;8.716;2022-07-06T16:15:03;3.63;;;1.50;;
25609;SDS011;13479;49.044;8.716;2022-07-06T16:17:30;3.33;;;1.75;;
25609;SDS011;13479;49.044;8.716;2022-07-06T16:19:56;3.25;;;1.80;;
25609;SDS011;13479;49.044;8.716;2022-07-06T16:22:21;3.15;;;1.77;;
25609;SDS011;13479;49.044;8.716;2022-07-06T16:24:47;2.83;;;1.80;;
25609;SDS011;13479;49.044;8.716;2022-07-06T16:27:12;5.60;;;1.85;;
25609;SDS011;13479;49.044;8.716;2022-07-06T16:29:38;2.58;;;1.55;;
25609;SDS011;13479;49.044;8.716;2022-07-06T16:32:04;3.30;;;1.63;;
25609;SDS011;13479;49.044;8.716;2022-07-06T16:34:29;5.53;;;1.80;;
25609;SDS011;13479;49.044;8.716;2022-07-06T16:36:54;6.35;;;1.60;;
25609;SDS011;13479;49.044;8.716;2022-07-06T16:39:20;4.30;;;2.15;;
25609;SDS011;13479;49.044;8.716;2022-07-06T16:41:45;6.28;;;1.70;;
25609;SDS011;13479;49.044;8.716;2022-07-06T16:44:10;6.18;;;1.70;;
25609;SDS011;13479;49.044;8.716;2022-07-06T16:46:36;6.30;;;1.70;;
25609;SDS011;13479;49.044;8.716;2022-07-06T16:49:01;6.50;;;1.70;;
25609;SDS011;13479;49.044;8.716;2022-07-06T16:51:27;5.93;;;1.40;;
25609;SDS011;13479;49.044;8.716;2022-07-06T16:53:52;8.15;;;1.40;;
25609;SDS011;13479;49.044;8.716;2022-07-06T16:56:17;3.25;;;1.33;;
25609;SDS011;13479;49.044;8.716;2022-07-06T16:58:42;3.15;;;1.40;;
25609;SDS011;13479;49.044;8.716;2022-07-06T17:01:08;4.63;;;1.70;;
25609;SDS011;13479;49.044;8.716;2022-07-06T17:03:33;4.95;;;1.33;;
25609;SDS011;13479;49.044;8.716;2022-07-06T17:05:58;5.05;;;1.70;;
25609;SDS011;13479;49.044;8.716;2022-07-06T17:08:24;1.88;;;1.25;;
25609;SDS011;13479;49.044;8.716;2022-07-06T17:10:50;4.45;;;1.60;;
25609;SDS011;13479;49.044;8.716;2022-07-06T17:13:15;2.38;;;1.30;;
25609;SDS011;13479;49.044;8.716;2022-07-06T17:15:40;3.08;;;1.15;;
25609;SDS011;13479;49.044;8.716;2022-07-06T17:18:06;3.38;;;1.40;;
25609;SDS011;13479;49.044;8.716;2022-07-06T17:20:31;5.30;;;1.35;;
25609;SDS011;13479;49.044;8.716;2022-07-06T17:22:57;3.22;;;1.30;;
25609;SDS011;13479;49.044;8.716;2022-07-06T17:25:25;2.40;;;1.20;;
25609;SDS011;13479;49.044;8.716;2022-07-06T17:27:51;4.45;;;1.20;;
25609;SDS011;13479;49.044;8.716;2022-07-06T17:30:17;2.63;;;0.93;;
25609;SDS011;13479;49.044;8.716;2022-07-06T17:32:42;3.30;;;1.10;;
25609;SDS011;13479;49.044;8.716;2022-07-06T17:35:07;2.00;;;0.98;;
25609;SDS011;13479;49.044;8.716;2022-07-06T17:37:33;4.90;;;1.30;;
25609;SDS011;13479;49.044;8.716;2022-07-06T17:39:58;10.02;;;1.02;;
25609;SDS011;13479;49.044;8.716;2022-07-06T17:42:23;11.35;;;1.38;;
25609;SDS011;13479;49.044;8.716;2022-07-06T17:44:50;7.28;;;1.05;;
25609;SDS011;13479;49.044;8.716;2022-07-06T17:47:16;14.05;;;1.25;;
25609;SDS011;13479;49.044;8.716;2022-07-06T17:49:41;5.78;;;1.30;;
25609;SDS011;13479;49.044;8.716;2022-07-06T17:52:07;5.72;;;1.30;;
25609;SDS011;13479;49.044;8.716;2022-07-06T17:54:39;6.03;;;1.00;;
25609;SDS011;13479;49.044;8.716;2022-07-06T17:57:08;3.15;;;1.23;;
25609;SDS011;13479;49.044;8.716;2022-07-06T17:59:33;3.08;;;0.82;;
25609;SDS011;13479;49.044;8.716;2022-07-06T18:01:58;2.67;;;1.00;;
25609;SDS011;13479;49.044;8.716;2022-07-06T18:04:23;3.88;;;1.00;;
25609;SDS011;13479;49.044;8.716;2022-07-06T18:06:49;5.55;;;1.30;;
25609;SDS011;13479;49.044;8.716;2022-07-06T18:09:14;3.08;;;0.80;;
25609;SDS011;13479;49.044;8.716;2022-07-06T18:11:39;2.63;;;1.10;;
25609;SDS011;13479;49.044;8.716;2022-07-06T18:14:05;5.20;;;0.82;;
25609;SDS011;13479;49.044;8.716;2022-07-06T18:16:30;5.18;;;1.00;;
25609;SDS011;13479;49.044;8.716;2022-07-06T18:18:56;2.35;;;0.90;;
25609;SDS011;13479;49.044;8.716;2022-07-06T18:21:21;2.45;;;0.98;;
25609;SDS011;13479;49.044;8.716;2022-07-06T18:23:46;3.28;;;1.10;;
25609;SDS011;13479;49.044;8.716;2022-07-06T18:26:12;3.28;;;0.98;;
25609;SDS011;13479;49.044;8.716;2022-07-06T18:28:38;6.97;;;1.30;;
25609;SDS011;13479;49.044;8.716;2022-07-06T18:31:03;8.18;;;0.90;;
25609;SDS011;13479;49.044;8.716;2022-07-06T18:33:29;5.05;;;0.95;;
25609;SDS011;13479;49.044;8.716;2022-07-06T18:35:55;5.22;;;0.80;;
25609;SDS011;13479;49.044;8.716;2022-07-06T18:38:21;4.38;;;0.77;;
25609;SDS011;13479;49.044;8.716;2022-07-06T18:40:47;4.78;;;1.00;;
25609;SDS011;13479;49.044;8.716;2022-07-06T18:43:12;2.85;;;0.80;;
25609;SDS011;13479;49.044;8.716;2022-07-06T18:45:40;3.83;;;0.70;;
25609;SDS011;13479;49.044;8.716;2022-07-06T18:48:06;3.42;;;0.73;;
25609;SDS011;13479;49.044;8.716;2022-07-06T18:50:36;1.30;;;0.60;;
25609;SDS011;13479;49.044;8.716;2022-07-06T18:53:01;2.90;;;0.88;;
25609;SDS011;13479;49.044;8.716;2022-07-06T18:55:27;4.65;;;0.80;;
25609;SDS011;13479;49.044;8.716;2022-07-06T18:57:52;3.90;;;0.90;;
25609;SDS011;13479;49.044;8.716;2022-07-06T19:00:17;3.92;;;0.65;;
25609;SDS011;13479;49.044;8.716;2022-07-06T19:02:43;3.53;;;0.60;;
25609;SDS011;13479;49.044;8.716;2022-07-06T19:05:08;4.57;;;0.80;;
25609;SDS011;13479;49.044;8.716;2022-07-06T19:07:34;2.35;;;0.73;;
25609;SDS011;13479;49.044;8.716;2022-07-06T19:09:59;3.15;;;0.60;;
25609;SDS011;13479;49.044;8.716;2022-07-06T19:12:25;3.85;;;0.60;;